createdAt,value
2023-03-18T00:04:28.128Z,36
2023-03-18T00:09:44.528Z,34
2023-03-18T00:15:01.243Z,35
2023-03-18T00:20:17.402Z,39
2023-03-18T00:25:33.804Z,32
2023-03-18T00:30:49.963Z,35
2023-03-18T00:36:07.100Z,39
2023-03-18T00:41:23.373Z,29
2023-03-18T00:46:39.850Z,32
2023-03-18T00:51:56.245Z,30
2023-03-18T00:57:12.627Z,36
2023-03-18T01:02:29.146Z,28
2023-03-18T01:07:45.463Z,30
2023-03-18T01:13:01.865Z,29
2023-03-18T01:18:18.299Z,28
2023-03-18T01:23:35.274Z,32
2023-03-18T01:28:51.715Z,30
2023-03-18T01:34:08.104Z,27
2023-03-18T01:39:25.121Z,32
2023-03-18T01:44:41.512Z,30
2023-03-18T01:49:58.476Z,32
2023-03-18T01:55:14.932Z,33
2023-03-18T02:00:31.672Z,31
2023-03-18T02:05:47.849Z,32
2023-03-18T02:11:04.248Z,32
2023-03-18T02:16:20.704Z,30
2023-03-18T02:21:37.164Z,34
2023-03-18T02:26:53.447Z,28
2023-03-18T02:32:09.901Z,32
2023-03-18T02:37:26.028Z,32
2023-03-18T02:42:42.678Z,29
2023-03-18T02:47:59.101Z,30
2023-03-18T02:53:15.504Z,28
2023-03-18T02:58:31.942Z,28
2023-03-18T03:03:48.740Z,28
2023-03-18T03:09:05.130Z,24
2023-03-18T03:14:21.582Z,28
2023-03-18T03:19:37.965Z,30
2023-03-18T03:24:54.497Z,25
2023-03-18T03:30:10.921Z,31
2023-03-18T03:35:27.338Z,27
2023-03-18T03:40:43.973Z,27
2023-03-18T03:46:00.199Z,26
2023-03-18T03:51:16.602Z,24
2023-03-18T03:56:33.042Z,32
2023-03-18T04:01:49.194Z,26
2023-03-18T04:07:05.583Z,24
2023-03-18T04:12:22.042Z,29
2023-03-18T04:17:38.495Z,36
2023-03-18T04:22:54.933Z,25
2023-03-18T04:28:11.372Z,25
2023-03-18T04:33:28.347Z,32
2023-03-18T04:38:44.789Z,28
2023-03-18T04:44:01.221Z,31
2023-03-18T04:49:17.348Z,27
2023-03-18T04:54:33.804Z,29
2023-03-18T04:59:50.196Z,29
2023-03-18T05:05:06.636Z,31
2023-03-18T05:10:23.073Z,31
2023-03-18T05:15:39.470Z,31
2023-03-18T05:20:55.910Z,35
2023-03-18T05:26:12.377Z,33
2023-03-18T05:31:28.809Z,30
2023-03-18T05:36:45.540Z,47
2023-03-18T05:42:02.208Z,38
2023-03-18T05:47:18.964Z,37
2023-03-18T05:52:35.461Z,42
2023-03-18T05:57:51.860Z,54
2023-03-18T06:03:08.366Z,42
2023-03-18T06:08:24.781Z,43
2023-03-18T06:13:40.943Z,44
2023-03-18T06:18:57.136Z,48
2023-03-18T06:24:13.597Z,48
2023-03-18T06:29:30.010Z,50
2023-03-18T06:34:47.061Z,51
2023-03-18T06:40:04.061Z,57
2023-03-18T06:45:20.516Z,62
2023-03-18T06:50:37.230Z,61
2023-03-18T06:55:53.387Z,56
2023-03-18T07:01:10.450Z,68
2023-03-18T07:06:26.922Z,65
2023-03-18T07:11:43.384Z,65
2023-03-18T07:16:59.927Z,67
2023-03-18T07:22:16.401Z,68
2023-03-18T07:27:32.827Z,50
2023-03-18T07:32:49.324Z,51
2023-03-18T07:38:05.683Z,49
2023-03-18T07:43:22.118Z,44
2023-03-18T07:48:38.588Z,45
2023-03-18T07:53:54.714Z,38
2023-03-18T07:59:11.169Z,41
2023-03-18T08:04:27.754Z,42
2023-03-18T08:09:44.268Z,40
2023-03-18T08:15:00.705Z,44
2023-03-18T08:20:17.125Z,37
2023-03-18T08:25:33.675Z,38
2023-03-18T08:30:49.919Z,35
2023-03-18T08:36:06.346Z,38
2023-03-18T08:41:23.256Z,29
2023-03-18T08:46:39.613Z,29
2023-03-18T08:51:55.976Z,30
2023-03-18T08:57:12.418Z,32
2023-03-18T09:02:28.535Z,27
2023-03-18T09:07:44.873Z,28
2023-03-18T09:13:01.114Z,37
2023-03-18T09:18:17.485Z,23
2023-03-18T09:23:34.387Z,27
2023-03-18T09:28:50.765Z,23
2023-03-18T09:34:07.162Z,32
2023-03-18T09:39:24.119Z,29
2023-03-18T09:44:40.744Z,27
2023-03-18T09:49:57.103Z,18
2023-03-18T09:55:13.470Z,20
2023-03-18T10:00:29.808Z,17
2023-03-18T10:05:46.154Z,15
2023-03-18T10:11:02.554Z,22
2023-03-18T10:16:18.906Z,17
2023-03-18T10:21:35.258Z,16
2023-03-18T10:26:51.578Z,13
2023-03-18T10:32:07.874Z,13
2023-03-18T10:37:24.234Z,10
2023-03-18T10:42:40.507Z,5
2023-03-18T10:47:56.819Z,10
2023-03-18T10:53:13.169Z,7
2023-03-18T10:58:29.438Z,12
2023-03-18T11:03:45.759Z,9
2023-03-18T11:09:02.046Z,9
2023-03-18T11:14:18.290Z,10
2023-03-18T11:19:34.636Z,8
2023-03-18T11:24:50.852Z,13
2023-03-18T11:30:07.150Z,9
2023-03-18T11:35:23.493Z,9
2023-03-18T11:40:39.729Z,9
2023-03-18T11:45:56.059Z,7
2023-03-18T11:51:12.366Z,9
2023-03-18T11:56:28.657Z,10
2023-03-18T12:01:45.010Z,9
2023-03-18T12:07:01.325Z,7
2023-03-18T12:12:17.574Z,5
2023-03-18T12:17:33.934Z,7
2023-03-18T12:22:50.178Z,11
2023-03-18T12:28:06.516Z,8
2023-03-18T12:33:22.852Z,9
2023-03-18T12:38:39.126Z,9
2023-03-18T12:43:55.470Z,10
2023-03-18T12:49:11.797Z,9
2023-03-18T12:54:28.078Z,8
2023-03-18T12:59:45.033Z,24
2023-03-18T13:05:01.433Z,9
2023-03-18T13:10:18.340Z,16
2023-03-18T13:15:34.998Z,7
2023-03-18T13:20:50.983Z,10
2023-03-18T13:26:07.334Z,6
2023-03-18T13:31:23.774Z,7
2023-03-18T13:36:40.013Z,7
2023-03-18T13:41:56.367Z,10
2023-03-18T13:47:12.698Z,8
2023-03-18T13:52:29.010Z,8
2023-03-18T13:57:45.380Z,14
2023-03-18T14:03:01.715Z,9
2023-03-18T14:08:18.029Z,10
2023-03-18T14:13:34.396Z,11
2023-03-18T14:18:50.699Z,11
2023-03-18T14:24:08.267Z,14
2023-03-18T14:29:23.451Z,10
2023-03-18T14:34:39.750Z,9
2023-03-18T14:39:56.871Z,9
2023-03-18T14:45:13.175Z,11
2023-03-18T14:50:29.550Z,10
2023-03-18T14:55:45.890Z,10
2023-03-18T15:01:02.246Z,10
2023-03-18T15:06:18.776Z,13
2023-03-18T15:11:35.139Z,14
2023-03-18T15:16:51.452Z,12
2023-03-18T15:22:07.872Z,10
2023-03-18T15:27:24.195Z,11
2023-03-18T15:32:40.557Z,10
2023-03-18T15:37:56.878Z,12
2023-03-18T15:43:13.210Z,10
2023-03-18T15:48:29.579Z,8
2023-03-18T15:53:45.930Z,11
2023-03-18T15:59:02.338Z,14
2023-03-18T16:04:18.619Z,11
2023-03-18T16:09:34.767Z,23
2023-03-18T16:14:51.110Z,12
2023-03-18T16:20:07.526Z,13
2023-03-18T16:25:23.788Z,25
2023-03-18T16:30:40.159Z,13
2023-03-18T16:35:56.659Z,11
2023-03-18T16:41:12.900Z,17
2023-03-18T16:46:29.310Z,13
2023-03-18T16:51:45.635Z,12
2023-03-18T16:57:01.981Z,12
2023-03-18T17:02:18.351Z,15
2023-03-18T17:07:34.851Z,20
2023-03-18T17:12:51.102Z,14
2023-03-18T17:18:07.483Z,16
2023-03-18T17:23:23.835Z,14
2023-03-18T17:28:40.212Z,13
2023-03-18T17:33:56.643Z,32
2023-03-18T17:39:12.976Z,14
2023-03-18T17:44:30.320Z,13
2023-03-18T17:49:45.759Z,24
2023-03-18T17:55:29.602Z,17
2023-03-18T18:00:49.747Z,28
2023-03-18T18:06:05.914Z,35
2023-03-18T18:11:22.374Z,36
2023-03-18T18:16:38.846Z,38
2023-03-18T18:21:55.223Z,31
2023-03-18T18:27:11.680Z,37
2023-03-18T18:32:28.664Z,47
2023-03-18T18:37:44.853Z,57
2023-03-18T18:43:01.453Z,43
2023-03-18T18:48:17.870Z,47
2023-03-18T18:53:34.230Z,39
2023-03-18T18:58:50.606Z,64
2023-03-18T19:04:07.068Z,35
2023-03-18T19:09:23.429Z,52
2023-03-18T19:14:39.870Z,55
2023-03-18T19:19:56.274Z,43
2023-03-18T19:25:12.704Z,52
2023-03-18T19:30:29.356Z,49
2023-03-18T19:35:45.768Z,54
2023-03-18T19:41:02.814Z,61
2023-03-18T19:46:19.106Z,62
2023-03-18T19:51:35.477Z,61
2023-03-18T19:56:51.943Z,45
2023-03-18T20:02:08.078Z,44
2023-03-18T20:07:24.530Z,39
2023-03-18T20:12:40.929Z,42
2023-03-18T20:17:57.348Z,37
2023-03-18T20:23:13.783Z,41
2023-03-18T20:28:30.786Z,49
2023-03-18T20:33:46.933Z,56
2023-03-18T20:39:03.680Z,75
2023-03-18T20:44:20.764Z,70
2023-03-18T20:49:37.577Z,59
2023-03-18T20:54:54.184Z,146
2023-03-18T21:00:10.686Z,152
2023-03-18T21:05:27.594Z,101
2023-03-18T21:10:45.072Z,81
2023-03-18T21:16:01.458Z,54
2023-03-18T21:21:18.431Z,64
2023-03-18T21:26:35.201Z,53
2023-03-18T21:31:51.603Z,50
2023-03-18T21:37:08.389Z,51
2023-03-18T21:42:24.791Z,40
2023-03-18T21:47:40.967Z,58
2023-03-18T21:52:57.426Z,59
2023-03-18T21:58:14.441Z,60
2023-03-18T22:03:31.160Z,45
2023-03-18T22:08:47.624Z,38
2023-03-18T22:14:04.013Z,40
2023-03-18T22:19:20.458Z,39
2023-03-18T22:24:36.894Z,36
2023-03-18T22:29:53.288Z,37
2023-03-18T22:35:10.316Z,79
2023-03-18T22:40:27.392Z,67
2023-03-18T22:45:43.986Z,34
2023-03-18T22:51:00.194Z,34
2023-03-18T22:56:16.323Z,30
2023-03-18T23:01:32.759Z,32
2023-03-18T23:06:48.950Z,81
2023-03-18T23:12:05.349Z,44
2023-03-18T23:17:22.317Z,29
2023-03-18T23:22:38.454Z,27
2023-03-18T23:27:54.923Z,28
2023-03-18T23:33:11.296Z,31
2023-03-18T23:38:27.750Z,34
2023-03-18T23:43:44.156Z,33
2023-03-18T23:49:00.552Z,28
2023-03-18T23:54:16.967Z,29
2023-03-18T23:59:33.376Z,25
